Time;durP1;ratioP1;P1;durP2;ratioP2;P2;SDS_P1;SDS_P2;PMS_P1;PMS_P2;Temp;Humidity;BMP_temperature;BMP_pressure;BME280_temperature;BME280_humidity;BME280_pressure;Samples;Min_cycle;Max_cycle;Signal;HPM_P1;HPM_P2
2021/12/22 00:01:05;;;;;;;32.05;14.35;;;0.80;94.70;;;;;;5046531;28;20076;-63
2021/12/22 00:03:32;;;;;;;22.85;10.45;;;0.70;94.60;;;;;;5047156;28;20075;-61
2021/12/22 00:05:59;;;;;;;32.88;11.43;;;0.70;94.50;;;;;;5045684;28;20480;-63
2021/12/22 00:08:27;;;;;;;21.38;10.30;;;0.60;94.60;;;;;;5043315;28;20049;-62
2021/12/22 00:10:53;;;;;;;22.20;9.30;;;0.60;94.60;;;;;;5044166;28;20049;-62
2021/12/22 00:13:20;;;;;;;21.13;7.47;;;0.60;94.60;;;;;;5045405;28;20045;-65
2021/12/22 00:15:47;;;;;;;18.35;7.38;;;0.70;94.60;;;;;;5044069;28;20041;-62
2021/12/22 00:18:14;;;;;;;13.23;7.57;;;0.70;94.40;;;;;;5045341;28;20083;-62
2021/12/22 00:20:40;;;;;;;16.92;6.68;;;0.70;94.40;;;;;;5045501;28;20151;-61
2021/12/22 00:23:07;;;;;;;19.67;7.88;;;0.70;94.50;;;;;;5046660;28;20467;-61
2021/12/22 00:25:34;;;;;;;14.82;6.70;;;0.80;94.40;;;;;;5046818;28;20080;-61
2021/12/22 00:28:02;;;;;;;10.07;5.82;;;0.80;94.40;;;;;;5046587;28;20098;-62
2021/12/22 00:30:29;;;;;;;13.82;7.47;;;0.90;94.50;;;;;;5046738;28;20077;-61
2021/12/22 00:33:02;;;;;;;18.13;7.13;;;0.90;94.50;;;;;;5045405;28;20966;-61
2021/12/22 00:35:37;;;;;;;24.53;7.77;;;0.90;94.30;;;;;;5046944;28;20084;-61
2021/12/22 00:38:05;;;;;;;14.25;6.40;;;0.80;94.20;;;;;;5045990;28;20321;-62
2021/12/22 00:40:32;;;;;;;13.55;6.90;;;0.80;94.40;;;;;;5047720;28;20048;-61
2021/12/22 00:42:58;;;;;;;17.63;6.93;;;0.90;94.40;;;;;;5047649;28;20311;-63
2021/12/22 00:45:28;;;;;;;15.88;7.47;;;0.90;94.50;;;;;;5046825;28;20076;-62
2021/12/22 00:47:55;;;;;;;13.80;7.75;;;0.80;94.20;;;;;;5047094;28;20092;-61
2021/12/22 00:50:22;;;;;;;19.98;7.25;;;0.90;94.20;;;;;;5046609;28;20554;-62
2021/12/22 00:52:49;;;;;;;17.30;7.75;;;0.90;94.30;;;;;;5038676;28;20338;-61
2021/12/22 00:55:19;;;;;;;26.38;6.60;;;1.00;94.30;;;;;;5046724;28;20052;-62
2021/12/22 00:57:47;;;;;;;19.20;7.40;;;1.00;94.20;;;;;;5046773;28;20045;-62
2021/12/22 01:00:19;;;;;;;14.00;7.13;;;1.10;94.20;;;;;;5045421;28;20087;-62
2021/12/22 01:02:46;;;;;;;11.55;6.90;;;1.00;94.10;;;;;;5046764;28;20076;-62
2021/12/22 01:05:14;;;;;;;20.75;7.53;;;1.10;94.10;;;;;;5046680;28;20091;-61
2021/12/22 01:07:42;;;;;;;16.65;7.60;;;1.00;94.00;;;;;;5047170;28;20056;-62
2021/12/22 01:10:18;;;;;;;12.00;7.28;;;1.00;93.90;;;;;;5050740;28;20056;-61
2021/12/22 01:12:44;;;;;;;14.05;7.22;;;1.00;94.10;;;;;;5049003;28;20071;-61
2021/12/22 01:15:12;;;;;;;17.25;7.25;;;1.00;94.00;;;;;;5050780;28;20045;-61
2021/12/22 01:17:40;;;;;;;21.98;7.90;;;1.00;94.10;;;;;;5050317;28;20083;-62
2021/12/22 01:20:15;;;;;;;16.73;7.57;;;1.00;94.10;;;;;;5050476;28;20122;-62
2021/12/22 01:25:12;;;;;;;16.75;6.60;;;0.80;94.10;;;;;;5050272;28;20502;-62
2021/12/22 01:27:41;;;;;;;16.45;7.88;;;0.80;94.10;;;;;;5049756;28;20499;-61
2021/12/22 01:30:19;;;;;;;17.15;6.72;;;0.70;94.40;;;;;;5049920;28;20090;-61
2021/12/22 01:32:47;;;;;;;29.65;8.85;;;0.70;94.20;;;;;;5047715;28;20099;-62
2021/12/22 01:35:16;;;;;;;13.55;5.95;;;0.60;94.30;;;;;;5049921;28;20099;-61
2021/12/22 01:37:42;;;;;;;13.25;6.72;;;0.60;94.40;;;;;;5049815;28;20045;-61
2021/12/22 01:40:10;;;;;;;16.05;7.05;;;0.60;94.60;;;;;;5048639;28;20049;-62
2021/12/22 01:42:37;;;;;;;17.85;7.80;;;0.60;94.60;;;;;;5050076;28;20076;-62
2021/12/22 01:51:46;;;;;;;12.48;6.13;;;0.70;94.50;;;;;;5049685;28;20048;-61
2021/12/22 01:54:32;;;;;;;13.77;7.03;;;0.70;94.50;;;;;;5046460;28;20352;-61
2021/12/22 01:57:01;;;;;;;11.98;5.75;;;0.60;94.50;;;;;;5049087;28;20076;-61
2021/12/22 01:59:28;;;;;;;17.35;6.40;;;0.60;94.60;;;;;;5049842;28;20075;-62
2021/12/22 02:01:55;;;;;;;13.50;6.40;;;0.60;94.50;;;;;;5049475;28;20053;-61
2021/12/22 02:04:22;;;;;;;20.35;7.72;;;0.70;94.60;;;;;;5048494;28;20493;-61
2021/12/22 02:06:49;;;;;;;19.05;8.00;;;0.60;94.40;;;;;;5048510;28;20080;-61
2021/12/22 02:10:02;;;;;;;17.40;7.22;;;0.60;94.40;;;;;;5048540;28;20049;-62
2021/12/22 02:12:11;;;;;;;19.77;8.27;;;0.60;94.50;;;;;;5048069;28;20107;-61
2021/12/22 02:14:40;;;;;;;15.70;6.85;;;0.50;94.70;;;;;;5048636;28;20119;-61
2021/12/22 02:17:09;;;;;;;12.00;5.78;;;0.60;94.80;;;;;;5047869;28;20049;-62
2021/12/22 02:19:43;;;;;;;14.98;7.40;;;0.60;94.90;;;;;;5048598;28;20091;-61
2021/12/22 02:22:13;;;;;;;18.77;8.88;;;0.50;94.50;;;;;;5049294;28;20084;-61
2021/12/22 02:24:45;;;;;;;15.57;7.10;;;0.50;94.70;;;;;;5048118;28;20099;-61
2021/12/22 02:27:21;;;;;;;16.88;7.13;;;0.50;94.60;;;;;;5048772;28;20283;-62
2021/12/22 02:29:49;;;;;;;19.15;6.25;;;0.50;94.60;;;;;;5049292;28;20128;-62
2021/12/22 02:35:06;;;;;;;23.15;6.18;;;0.40;94.70;;;;;;5047652;28;20045;-64
2021/12/22 02:37:42;;;;;;;16.38;6.65;;;0.40;94.70;;;;;;5048926;28;20045;-61
2021/12/22 02:40:13;;;;;;;15.02;6.00;;;0.40;94.80;;;;;;5049053;28;20049;-61
2021/12/22 02:42:41;;;;;;;13.25;6.25;;;0.40;94.90;;;;;;5043596;28;20041;-62
2021/12/22 02:45:09;;;;;;;17.92;7.28;;;0.40;94.80;;;;;;5049174;28;20511;-61
2021/12/22 02:47:35;;;;;;;10.88;5.53;;;1.20;95.00;;;;;;5046752;28;20432;-61
2021/12/22 02:50:06;;;;;;;12.18;6.55;;;0.30;94.90;;;;;;5048905;28;20122;-62
2021/12/22 02:52:45;;;;;;;13.10;6.38;;;0.30;94.80;;;;;;5048241;28;20049;-61
2021/12/22 02:55:12;;;;;;;16.52;6.47;;;0.30;95.00;;;;;;5048761;28;20099;-61
2021/12/22 02:57:44;;;;;;;15.82;5.43;;;1.20;95.00;;;;;;5047428;28;20088;-62
2021/12/22 03:00:33;;;;;;;18.25;6.90;;;0.20;94.80;;;;;;5048789;28;20496;-62
2021/12/22 03:03:13;;;;;;;14.48;6.55;;;0.20;95.10;;;;;;5041775;28;20080;-62
2021/12/22 03:05:40;;;;;;;15.07;7.13;;;0.20;95.30;;;;;;5046838;28;20045;-61
2021/12/22 03:08:07;;;;;;;21.98;6.43;;;0.20;95.30;;;;;;5048296;28;20148;-61
2021/12/22 03:10:34;;;;;;;11.75;6.10;;;0.10;95.20;;;;;;5048236;28;20085;-61
2021/12/22 03:13:04;;;;;;;15.30;5.15;;;0.10;95.40;;;;;;5046763;28;20080;-61
2021/12/22 03:15:30;;;;;;;16.23;6.80;;;0.20;95.50;;;;;;5048204;28;20044;-62
2021/12/22 03:17:57;;;;;;;12.85;6.32;;;0.30;95.60;;;;;;5048025;28;20084;-62
2021/12/22 03:20:24;;;;;;;13.98;6.07;;;0.30;95.50;;;;;;5046661;28;20504;-62
2021/12/22 03:22:52;;;;;;;12.65;6.22;;;0.50;95.50;;;;;;5048614;28;20192;-61
2021/12/22 03:25:20;;;;;;;11.73;4.97;;;0.40;95.50;;;;;;5047598;28;20188;-61
2021/12/22 03:27:49;;;;;;;12.48;6.25;;;0.40;95.40;;;;;;5048085;28;20276;-61
2021/12/22 03:30:19;;;;;;;22.00;7.68;;;0.50;95.30;;;;;;5047509;28;20122;-61
2021/12/22 03:32:45;;;;;;;26.25;7.07;;;0.50;95.30;;;;;;5048015;28;20121;-61
2021/12/22 03:35:17;;;;;;;18.52;5.82;;;0.50;95.40;;;;;;5047895;28;20049;-62
2021/12/22 03:37:44;;;;;;;9.88;5.28;;;0.50;95.40;;;;;;5048022;28;20102;-62
2021/12/22 03:40:11;;;;;;;18.15;6.20;;;0.60;95.50;;;;;;5047756;28;20103;-61
2021/12/22 03:42:38;;;;;;;17.75;6.22;;;0.50;95.50;;;;;;5048067;28;20365;-62
2021/12/22 03:45:05;;;;;;;23.33;6.68;;;0.40;95.40;;;;;;5047824;28;20158;-61
2021/12/22 03:47:32;;;;;;;17.08;6.10;;;0.40;95.40;;;;;;5047603;28;20061;-61
2021/12/22 03:49:59;;;;;;;17.20;6.53;;;0.40;95.40;;;;;;5047972;28;20096;-61
2021/12/22 03:52:26;;;;;;;13.80;6.68;;;0.40;95.40;;;;;;5047048;28;20394;-62
2021/12/22 03:54:58;;;;;;;15.07;5.60;;;0.40;95.40;;;;;;5046535;28;20045;-62
2021/12/22 03:57:26;;;;;;;13.00;5.70;;;0.30;95.40;;;;;;5044839;28;20061;-62
2021/12/22 03:59:53;;;;;;;18.05;6.72;;;0.30;95.40;;;;;;5047071;28;20041;-62
2021/12/22 04:02:21;;;;;;;16.17;6.78;;;0.50;95.60;;;;;;5040543;28;20103;-62
2021/12/22 04:04:49;;;;;;;18.35;7.07;;;0.40;95.60;;;;;;5034161;28;20061;-61
2021/12/22 04:07:16;;;;;;;16.40;5.68;;;0.40;95.50;;;;;;5047325;28;20337;-62
2021/12/22 04:09:43;;;;;;;17.27;5.97;;;0.40;95.50;;;;;;5045979;28;20099;-62
2021/12/22 04:12:10;;;;;;;17.80;5.60;;;0.50;95.50;;;;;;5046666;28;20480;-62
2021/12/22 04:14:37;;;;;;;17.27;5.15;;;0.50;95.40;;;;;;5047600;28;20451;-62
2021/12/22 04:17:04;;;;;;;12.90;5.18;;;0.60;95.30;;;;;;5046829;28;20092;-62
2021/12/22 04:19:31;;;;;;;13.77;5.57;;;0.60;95.60;;;;;;5047358;28;20492;-62
2021/12/22 04:21:57;;;;;;;16.50;5.72;;;0.60;95.20;;;;;;5046970;28;20512;-62
2021/12/22 04:24:24;;;;;;;12.73;5.45;;;0.70;95.20;;;;;;5045577;28;20077;-62
2021/12/22 04:26:51;;;;;;;14.23;5.70;;;0.70;95.20;;;;;;5046889;28;20095;-62
2021/12/22 04:29:19;;;;;;;14.73;5.80;;;0.80;95.30;;;;;;5046832;28;20569;-63
2021/12/22 04:31:45;;;;;;;15.85;5.18;;;0.70;95.10;;;;;;5046638;28;20049;-62
2021/12/22 04:34:12;;;;;;;16.13;5.97;;;0.70;95.00;;;;;;5047398;28;20400;-61
2021/12/22 04:36:40;;;;;;;9.32;4.93;;;1.10;95.10;;;;;;5038985;28;20045;-63
2021/12/22 04:39:07;;;;;;;8.05;4.05;;;0.70;94.90;;;;;;5046138;28;20057;-61
2021/12/22 04:41:34;;;;;;;13.07;4.88;;;0.70;95.00;;;;;;5045984;28;20664;-63
2021/12/22 04:44:01;;;;;;;18.92;4.82;;;0.70;95.00;;;;;;5049920;28;20045;-62
2021/12/22 04:46:29;;;;;;;11.93;5.07;;;0.70;94.90;;;;;;5050719;28;20128;-65
2021/12/22 04:48:55;;;;;;;11.27;4.25;;;0.70;94.90;;;;;;5049489;28;20074;-62
2021/12/22 04:51:29;;;;;;;12.70;5.53;;;0.80;95.00;;;;;;5050849;28;20045;-62
2021/12/22 04:54:17;;;;;;;17.50;5.28;;;0.60;94.90;;;;;;5049669;28;20416;-62
2021/12/22 04:56:43;;;;;;;12.75;5.28;;;0.70;95.00;;;;;;5051063;28;20207;-62
2021/12/22 04:59:11;;;;;;;12.98;4.78;;;0.70;94.90;;;;;;5032819;28;20052;-62
2021/12/22 05:01:38;;;;;;;21.35;4.68;;;0.70;94.90;;;;;;5049636;28;20072;-62
2021/12/22 05:04:04;;;;;;;11.02;4.95;;;0.80;95.00;;;;;;5050194;28;20112;-62
2021/12/22 05:06:34;;;;;;;15.30;5.35;;;0.70;94.90;;;;;;5051100;28;20244;-61
2021/12/22 05:09:02;;;;;;;18.02;5.55;;;0.70;94.90;;;;;;5050287;28;20111;-62
2021/12/22 05:11:28;;;;;;;14.82;5.95;;;0.70;94.80;;;;;;5050692;28;20045;-61
2021/12/22 05:13:55;;;;;;;16.02;5.32;;;0.60;94.70;;;;;;5049284;28;20114;-62
2021/12/22 05:16:22;;;;;;;19.98;6.68;;;0.50;94.80;;;;;;5050215;28;20053;-62
2021/12/22 05:18:58;;;;;;;16.13;5.50;;;0.50;94.80;;;;;;5050473;28;20045;-62
2021/12/22 05:21:25;;;;;;;14.13;5.20;;;0.60;94.80;;;;;;5049965;28;20084;-62
2021/12/22 05:23:52;;;;;;;14.32;5.82;;;0.40;95.00;;;;;;5050563;28;20045;-62
2021/12/22 05:26:20;;;;;;;18.75;5.43;;;0.40;95.00;;;;;;5049953;28;20088;-63
2021/12/22 05:28:47;;;;;;;12.90;5.78;;;0.40;95.00;;;;;;5050051;28;20045;-63
2021/12/22 05:31:14;;;;;;;18.05;5.57;;;0.40;95.10;;;;;;5048927;28;20080;-62
2021/12/22 05:33:40;;;;;;;12.63;5.30;;;0.40;95.20;;;;;;5049933;28;20068;-62
2021/12/22 05:36:07;;;;;;;16.88;7.07;;;0.30;95.20;;;;;;5050273;28;20110;-62
2021/12/22 05:38:34;;;;;;;11.68;4.68;;;0.30;95.10;;;;;;5050156;28;20088;-62
2021/12/22 05:41:01;;;;;;;20.42;5.75;;;0.30;95.30;;;;;;5050106;28;20077;-62
2021/12/22 05:43:28;;;;;;;13.50;5.03;;;0.30;95.30;;;;;;5049720;28;20079;-62
2021/12/22 05:45:55;;;;;;;10.70;4.85;;;0.30;95.40;;;;;;5049751;28;20049;-63
2021/12/22 05:48:22;;;;;;;13.70;5.13;;;0.40;95.40;;;;;;5048473;28;20321;-62
2021/12/22 05:50:51;;;;;;;27.08;6.75;;;0.40;95.50;;;;;;5049859;28;20076;-63
2021/12/22 05:53:18;;;;;;;13.57;5.85;;;0.40;95.60;;;;;;5049998;28;20336;-62
2021/12/22 05:55:45;;;;;;;17.88;6.22;;;0.40;95.40;;;;;;5047061;28;20539;-62
2021/12/22 05:58:12;;;;;;;12.93;5.15;;;1.10;95.50;;;;;;5049539;28;20049;-62
2021/12/22 06:00:39;;;;;;;14.82;5.93;;;0.40;95.50;;;;;;5049794;28;20499;-62
2021/12/22 06:03:06;;;;;;;15.77;6.15;;;0.60;95.60;;;;;;5048767;28;20084;-63
2021/12/22 06:05:32;;;;;;;10.15;4.85;;;0.40;95.60;;;;;;5049624;28;20045;-63
2021/12/22 06:07:59;;;;;;;28.60;8.13;;;0.40;95.60;;;;;;5050075;28;20385;-62
2021/12/22 06:10:26;;;;;;;13.50;5.10;;;0.50;95.60;;;;;;5049409;28;20045;-62
2021/12/22 06:12:53;;;;;;;17.55;5.63;;;0.50;95.60;;;;;;5049221;28;20080;-63
2021/12/22 06:15:20;;;;;;;20.15;6.38;;;0.50;95.50;;;;;;5048784;28;20037;-62
2021/12/22 06:17:52;;;;;;;12.73;4.65;;;0.50;95.60;;;;;;5049810;28;20056;-63
2021/12/22 06:20:19;;;;;;;16.90;5.32;;;0.40;95.60;;;;;;5048251;28;20037;-62
2021/12/22 06:22:46;;;;;;;15.43;4.50;;;0.40;95.50;;;;;;5043686;28;20071;-61
2021/12/22 06:25:13;;;;;;;12.68;4.82;;;0.40;95.50;;;;;;5049226;28;20518;-62
2021/12/22 06:27:40;;;;;;;15.43;6.07;;;0.40;95.40;;;;;;5047866;28;20060;-62
2021/12/22 06:30:07;;;;;;;13.43;5.18;;;0.30;95.60;;;;;;5049201;28;20044;-62
2021/12/22 06:32:34;;;;;;;12.38;4.95;;;0.30;95.60;;;;;;5046405;28;20060;-62
2021/12/22 06:35:01;;;;;;;22.98;6.28;;;0.30;95.70;;;;;;5046758;28;20542;-63
2021/12/22 06:37:28;;;;;;;15.27;5.43;;;0.30;95.90;;;;;;5049122;28;20450;-62
2021/12/22 06:39:54;;;;;;;12.88;5.82;;;0.50;95.80;;;;;;5048335;28;20048;-62
2021/12/22 06:42:22;;;;;;;12.68;4.72;;;0.40;95.80;;;;;;5049024;28;20049;-62
2021/12/22 06:44:52;;;;;;;12.30;5.97;;;0.40;95.80;;;;;;5047221;28;20073;-62
2021/12/22 06:47:19;;;;;;;12.80;5.28;;;0.40;95.80;;;;;;5048598;28;20089;-62
2021/12/22 06:49:46;;;;;;;28.42;6.03;;;0.30;95.80;;;;;;5048561;28;20087;-63
2021/12/22 06:52:13;;;;;;;21.25;6.35;;;0.30;95.90;;;;;;5048410;28;20056;-62
2021/12/22 06:54:39;;;;;;;10.77;5.43;;;0.30;96.00;;;;;;5048720;28;20040;-62
2021/12/22 06:57:06;;;;;;;14.82;5.88;;;0.30;96.00;;;;;;5047776;28;20080;-62
2021/12/22 06:59:33;;;;;;;19.38;6.28;;;0.30;95.90;;;;;;5048632;28;20048;-63
2021/12/22 07:02:00;;;;;;;15.85;5.70;;;0.30;96.10;;;;;;5048143;28;20053;-63
2021/12/22 07:04:27;;;;;;;15.57;5.97;;;0.30;96.00;;;;;;5048593;28;20071;-62
2021/12/22 07:06:54;;;;;;;14.73;5.25;;;0.30;96.30;;;;;;5047416;28;20079;-62
2021/12/22 07:09:20;;;;;;;12.55;5.90;;;0.50;96.30;;;;;;5048034;28;20073;-62
2021/12/22 07:11:47;;;;;;;14.98;5.38;;;0.20;96.40;;;;;;5048201;28;20045;-62
2021/12/22 07:14:14;;;;;;;11.48;6.15;;;0.20;96.40;;;;;;5047315;28;20045;-62
2021/12/22 07:16:41;;;;;;;14.48;6.45;;;0.20;96.40;;;;;;5046346;28;20073;-62
2021/12/22 07:19:08;;;;;;;17.80;5.88;;;0.10;96.40;;;;;;5041201;28;20045;-62
2021/12/22 07:21:35;;;;;;;16.63;6.53;;;0.50;96.80;;;;;;5047888;28;20045;-62
2021/12/22 07:24:03;;;;;;;13.50;6.32;;;0.00;97.00;;;;;;5046336;28;20447;-62
2021/12/22 07:26:30;;;;;;;22.23;7.63;;;0.10;96.90;;;;;;5047793;28;20067;-62
2021/12/22 07:28:57;;;;;;;13.80;5.82;;;0.10;96.80;;;;;;5046114;28;20114;-62
2021/12/22 07:31:24;;;;;;;14.98;5.90;;;0.10;96.60;;;;;;5047865;28;20040;-62
2021/12/22 07:34:01;;;;;;;16.58;6.07;;;0.20;96.40;;;;;;5046124;28;20147;-62
2021/12/22 07:36:28;;;;;;;11.15;5.22;;;0.10;96.30;;;;;;5047864;28;20053;-62
2021/12/22 07:38:59;;;;;;;10.85;5.40;;;0.10;96.40;;;;;;5047608;28;20453;-62
2021/12/22 07:41:27;;;;;;;10.65;5.18;;;0.00;96.30;;;;;;5047676;28;20099;-62
2021/12/22 07:43:54;;;;;;;18.15;7.25;;;0.00;96.40;;;;;;5046385;28;20504;-62
2021/12/22 07:46:20;;;;;;;19.95;7.53;;;0.00;96.40;;;;;;5047200;28;20052;-63
2021/12/22 07:48:47;;;;;;;20.42;6.40;;;0.00;96.40;;;;;;5047297;28;20052;-62
2021/12/22 07:51:14;;;;;;;11.77;6.05;;;0.00;96.50;;;;;;5047100;28;20045;-62
2021/12/22 07:53:41;;;;;;;10.90;6.15;;;0.00;96.60;;;;;;5047122;28;20045;-62
2021/12/22 07:56:08;;;;;;;15.68;6.55;;;0.00;96.90;;;;;;5047390;28;20041;-62
2021/12/22 07:58:34;;;;;;;13.77;6.68;;;0.00;96.70;;;;;;5047203;28;20056;-62
2021/12/22 08:01:02;;;;;;;15.93;6.70;;;0.00;96.90;;;;;;5030031;28;20561;-63
2021/12/22 08:03:29;;;;;;;11.77;5.93;;;-0.10;97.00;;;;;;5046494;28;20048;-62
2021/12/22 08:06:12;;;;;;;15.80;7.45;;;-0.10;97.30;;;;;;5047631;28;20110;-62
2021/12/22 08:08:39;;;;;;;15.20;6.13;;;0.00;97.00;;;;;;5046843;28;20126;-62
2021/12/22 08:11:06;;;;;;;13.13;6.35;;;0.10;96.90;;;;;;5045852;28;20053;-62
2021/12/22 08:13:34;;;;;;;22.02;6.53;;;0.10;96.80;;;;;;5046499;28;20087;-62
2021/12/22 08:16:01;;;;;;;16.80;7.47;;;0.10;96.70;;;;;;5040694;28;20076;-62
2021/12/22 08:18:28;;;;;;;16.95;7.40;;;0.10;96.70;;;;;;5046184;28;20135;-62
2021/12/22 08:20:57;;;;;;;32.15;8.27;;;0.10;96.70;;;;;;5046617;28;20040;-63
2021/12/22 08:23:29;;;;;;;;;;;0.30;96.70;;;;;;5047642;28;20135;-62
2021/12/22 08:25:56;;;;;;;20.25;5.93;;;0.10;97.10;;;;;;5047524;28;20526;-62
2021/12/22 08:28:22;;;;;;;12.57;7.30;;;0.20;97.10;;;;;;5046246;28;20072;-63
2021/12/22 08:30:49;;;;;;;11.60;5.38;;;0.30;97.20;;;;;;5046519;28;20049;-65
2021/12/22 08:33:21;;;;;;;18.25;7.07;;;0.30;97.20;;;;;;5047095;28;20530;-62
2021/12/22 08:38:51;;;;;;;17.55;7.28;;;0.50;97.40;;;;;;5046049;28;20053;-62
2021/12/22 08:41:33;;;;;;;10.20;5.10;;;0.70;97.60;;;;;;5046399;28;20045;-63
2021/12/22 08:44:06;;;;;;;13.20;6.55;;;0.80;97.50;;;;;;5043039;28;20057;-62
2021/12/22 08:46:33;;;;;;;15.75;5.70;;;1.00;97.40;;;;;;5046759;28;20041;-60
2021/12/22 08:49:00;;;;;;;19.23;6.55;;;1.10;97.60;;;;;;5042856;28;20072;-61
2021/12/22 08:51:28;;;;;;;11.18;5.70;;;1.30;97.40;;;;;;5043120;28;20045;-61
2021/12/22 08:53:55;;;;;;;16.88;6.07;;;1.40;97.30;;;;;;5041179;28;20508;-60
2021/12/22 08:56:22;;;;;;;13.38;6.60;;;1.50;97.20;;;;;;5045798;28;20067;-61
2021/12/22 08:58:49;;;;;;;17.98;7.60;;;1.60;97.20;;;;;;5046960;28;20044;-61
2021/12/22 09:01:15;;;;;;;13.98;6.85;;;1.70;97.10;;;;;;5045988;28;20063;-60
2021/12/22 09:03:42;;;;;;;12.88;5.82;;;1.80;97.10;;;;;;5046370;28;20051;-61
2021/12/22 09:06:11;;;;;;;12.82;6.43;;;1.80;97.00;;;;;;5046630;28;20094;-61
2021/12/22 09:08:41;;;;;;;12.73;5.82;;;1.90;96.90;;;;;;5045013;28;20455;-61
2021/12/22 09:11:08;;;;;;;13.15;5.80;;;2.00;96.80;;;;;;5042502;28;20045;-60
2021/12/22 09:13:36;;;;;;;15.00;5.43;;;2.10;96.90;;;;;;5044705;28;20750;-60
2021/12/22 09:16:04;;;;;;;13.20;5.95;;;2.10;96.80;;;;;;5045950;28;20253;-60
2021/12/22 09:18:31;;;;;;;16.58;6.65;;;2.20;96.80;;;;;;5032296;28;20095;-59
2021/12/22 09:20:57;;;;;;;15.55;6.43;;;2.20;96.70;;;;;;5041170;28;20131;-60
2021/12/22 09:23:24;;;;;;;10.85;6.30;;;2.40;96.80;;;;;;5049447;28;20052;-61
2021/12/22 09:25:51;;;;;;;10.35;5.78;;;2.40;96.80;;;;;;5047511;28;20076;-61
2021/12/22 09:28:18;;;;;;;22.83;6.30;;;2.40;96.80;;;;;;5046505;28;20044;-61
2021/12/22 09:30:45;;;;;;;13.95;6.50;;;2.50;96.90;;;;;;5044285;28;20072;-61
2021/12/22 09:33:14;;;;;;;18.95;6.18;;;2.70;96.80;;;;;;5051030;28;20515;-61
2021/12/22 09:35:41;;;;;;;18.73;7.35;;;2.70;96.70;;;;;;5048671;28;20065;-61
2021/12/22 09:38:08;;;;;;;14.55;6.10;;;2.70;96.60;;;;;;5050896;28;20048;-61
2021/12/22 09:40:35;;;;;;;18.33;6.18;;;2.90;96.60;;;;;;5051613;28;20044;-61
2021/12/22 09:43:02;;;;;;;15.70;6.45;;;2.90;96.60;;;;;;5050505;28;20099;-60
2021/12/22 09:45:29;;;;;;;13.80;7.60;;;2.90;96.40;;;;;;5046136;28;20135;-61
2021/12/22 09:50:45;;;;;;;20.98;8.02;;;3.10;96.40;;;;;;5050411;28;20099;-61
2021/12/22 09:53:13;;;;;;;15.75;7.50;;;3.10;96.30;;;;;;5047814;28;20087;-62
2021/12/22 09:55:40;;;;;;;17.15;7.05;;;3.20;96.30;;;;;;5049971;28;20072;-61
2021/12/22 09:58:09;;;;;;;18.10;5.85;;;3.20;96.40;;;;;;5046255;28;20244;-61
2021/12/22 10:00:36;;;;;;;14.13;6.75;;;3.30;96.40;;;;;;5047144;28;20056;-62
2021/12/22 10:03:07;;;;;;;14.60;6.43;;;3.30;96.30;;;;;;5044988;28;20835;-61
2021/12/22 10:05:35;;;;;;;15.55;5.80;;;3.40;96.30;;;;;;5046052;28;20049;-64
2021/12/22 10:08:18;;;;;;;13.02;5.88;;;3.40;96.60;;;;;;5046666;28;20052;-59
2021/12/22 10:11:04;;;;;;;24.17;8.32;;;3.50;96.40;;;;;;5045287;28;20505;-60
2021/12/22 10:13:31;;;;;;;14.25;6.45;;;3.50;96.30;;;;;;5041991;28;20558;-61
2021/12/22 10:15:58;;;;;;;19.95;6.13;;;3.60;96.30;;;;;;5044132;28;20079;-61
2021/12/22 10:18:27;;;;;;;11.73;6.32;;;3.60;96.40;;;;;;5045260;28;20555;-60
2021/12/22 10:21:15;;;;;;;15.50;6.22;;;3.70;96.00;;;;;;5045382;28;20080;-60
2021/12/22 10:23:46;;;;;;;20.13;9.23;;;3.70;96.00;;;;;;5046331;28;20045;-61
2021/12/22 10:26:18;;;;;;;15.57;6.18;;;3.80;96.00;;;;;;5046787;28;20045;-60
2021/12/22 10:28:51;;;;;;;14.95;6.57;;;3.90;96.10;;;;;;5045977;28;20073;-60
2021/12/22 10:31:20;;;;;;;11.20;6.32;;;3.90;95.90;;;;;;5045794;28;20490;-61
2021/12/22 10:33:47;;;;;;;16.38;6.55;;;3.90;95.70;;;;;;5045699;28;20049;-61
2021/12/22 10:36:19;;;;;;;11.68;6.07;;;3.90;95.70;;;;;;5046354;28;20049;-61
2021/12/22 10:38:53;;;;;;;18.45;6.75;;;4.00;95.70;;;;;;5047807;28;20044;-61
2021/12/22 10:41:21;;;;;;;20.35;6.10;;;4.00;95.70;;;;;;5047416;28;20068;-60
2021/12/22 10:43:49;;;;;;;17.38;6.22;;;4.00;95.60;;;;;;5048390;28;20060;-61
2021/12/22 10:46:42;;;;;;;14.30;6.72;;;4.10;95.60;;;;;;5048480;28;20060;-60
2021/12/22 10:49:20;;;;;;;9.88;5.75;;;4.10;95.40;;;;;;5041893;28;20470;-60
2021/12/22 10:51:53;;;;;;;17.48;6.28;;;4.10;95.50;;;;;;5042952;28;20503;-60
2021/12/22 10:54:20;;;;;;;10.20;5.95;;;4.10;95.50;;;;;;5047783;28;20119;-60
2021/12/22 10:56:47;;;;;;;14.85;6.55;;;4.10;95.40;;;;;;5047273;28;20072;-60
2021/12/22 10:59:16;;;;;;;10.82;5.88;;;4.10;95.30;;;;;;5046140;28;20516;-60
2021/12/22 11:01:57;;;;;;;17.48;6.63;;;4.20;95.30;;;;;;5045444;28;20547;-61
2021/12/22 11:04:28;;;;;;;16.75;5.95;;;4.10;95.00;;;;;;5045073;28;20041;-59
2021/12/22 11:06:56;;;;;;;12.75;6.93;;;4.20;95.00;;;;;;5045059;28;20053;-61
2021/12/22 11:09:23;;;;;;;13.90;6.85;;;4.20;95.30;;;;;;5044127;28;20045;-60
2021/12/22 11:11:52;;;;;;;16.70;5.93;;;4.20;95.20;;;;;;5046250;28;20056;-61
2021/12/22 11:14:24;;;;;;;15.82;6.15;;;4.30;95.10;;;;;;5046382;28;20084;-60
2021/12/22 11:17:09;;;;;;;14.80;6.38;;;4.20;95.10;;;;;;5047029;28;20049;-60
2021/12/22 11:19:50;;;;;;;12.32;5.78;;;4.30;95.00;;;;;;5040622;28;20090;-60
2021/12/22 11:22:18;;;;;;;11.77;6.50;;;4.30;95.00;;;;;;5043952;28;20040;-60
2021/12/22 11:24:47;;;;;;;15.07;6.10;;;4.30;95.30;;;;;;5047636;28;20420;-60
2021/12/22 11:27:19;;;;;;;14.45;6.35;;;4.30;94.90;;;;;;5047907;28;20069;-61
2021/12/22 11:29:49;;;;;;;15.00;5.55;;;4.40;95.00;;;;;;5040169;28;20045;-60
2021/12/22 11:32:17;;;;;;;11.30;5.45;;;4.40;94.90;;;;;;5047706;28;20076;-60
2021/12/22 11:34:48;;;;;;;12.10;5.95;;;4.40;94.70;;;;;;5047356;28;20052;-61
2021/12/22 11:37:18;;;;;;;11.73;5.43;;;4.40;94.70;;;;;;5048075;28;20071;-59
2021/12/22 11:39:45;;;;;;;16.48;6.22;;;4.50;94.60;;;;;;5047586;28;20049;-60
2021/12/22 11:42:13;;;;;;;16.95;6.78;;;4.50;94.50;;;;;;5047987;28;20067;-60
2021/12/22 11:44:45;;;;;;;16.27;6.82;;;4.60;94.60;;;;;;5047845;28;20080;-60
2021/12/22 11:47:13;;;;;;;19.70;9.25;;;4.60;94.40;;;;;;5030000;28;20092;-61
2021/12/22 11:49:52;;;;;;;17.73;7.07;;;4.60;94.30;;;;;;5047295;28;20075;-59
2021/12/22 11:52:39;;;;;;;16.17;9.32;;;4.70;94.20;;;;;;5044974;28;20053;-60
2021/12/22 11:55:10;;;;;;;15.10;6.10;;;4.80;94.00;;;;;;5046217;28;20106;-60
2021/12/22 11:57:37;;;;;;;12.50;6.18;;;4.80;94.30;;;;;;5046927;28;20549;-60
2021/12/22 12:00:23;;;;;;;18.48;8.30;;;4.90;94.30;;;;;;5047246;28;20053;-60
2021/12/22 12:02:50;;;;;;;17.58;6.72;;;4.90;93.80;;;;;;5046682;28;20049;-60
2021/12/22 12:05:22;;;;;;;15.93;6.18;;;5.00;94.20;;;;;;5047274;28;20056;-60
2021/12/22 12:08:03;;;;;;;13.98;6.35;;;4.90;94.00;;;;;;5047004;28;20667;-60
2021/12/22 12:10:50;;;;;;;24.75;9.50;;;5.00;93.70;;;;;;5040824;28;20049;-59
2021/12/22 12:13:34;;;;;;;21.30;7.97;;;4.90;93.60;;;;;;5046665;28;20045;-62
2021/12/22 12:21:55;;;;;;;15.30;6.97;;;5.00;93.60;;;;;;5041673;28;20045;-59
2021/12/22 12:24:34;;;;;;;15.35;6.05;;;5.00;93.90;;;;;;5046744;28;20098;-60
2021/12/22 12:27:22;;;;;;;16.73;6.85;;;5.00;93.80;;;;;;5045652;28;20075;-60
2021/12/22 12:30:06;;;;;;;16.52;5.88;;;5.00;93.70;;;;;;5040097;28;20475;-59
2021/12/22 12:32:39;;;;;;;19.75;7.07;;;5.00;93.40;;;;;;5047013;28;20411;-60
2021/12/22 12:35:20;;;;;;;13.97;7.40;;;5.10;93.60;;;;;;5046833;28;20110;-60
2021/12/22 12:38:03;;;;;;;16.55;5.57;;;5.00;93.30;;;;;;4689499;28;10000037;-59
2021/12/22 12:40:58;;;;;;;16.98;6.40;;;5.00;93.80;;;;;;5043943;28;20317;-60
2021/12/22 12:46:27;;;;;;;14.20;6.72;;;5.10;93.20;;;;;;5046652;28;20045;-60
2021/12/22 12:49:14;;;;;;;13.63;6.07;;;5.10;93.40;;;;;;5046940;28;20080;-59
2021/12/22 12:51:49;;;;;;;19.73;7.10;;;5.10;93.30;;;;;;5043847;28;20044;-60
2021/12/22 12:54:16;;;;;;;12.77;6.30;;;5.10;93.70;;;;;;5043805;28;20049;-60
2021/12/22 12:56:47;;;;;;;16.17;7.70;;;5.10;93.70;;;;;;5047120;28;20060;-60
2021/12/22 12:59:35;;;;;;;16.38;6.93;;;5.10;93.60;;;;;;5042058;28;20486;-61
2021/12/22 13:02:02;;;;;;;11.90;6.60;;;5.10;93.70;;;;;;5044891;28;20060;-61
2021/12/22 13:04:30;;;;;;;16.95;8.10;;;5.10;93.70;;;;;;5048310;28;20091;-60
2021/12/22 13:07:07;;;;;;;15.55;7.57;;;5.10;93.70;;;;;;5050720;28;20087;-60
2021/12/22 13:09:38;;;;;;;15.35;6.63;;;5.10;93.70;;;;;;5050591;28;20049;-60
2021/12/22 13:17:56;;;;;;;16.30;7.25;;;5.10;93.60;;;;;;5043630;28;20069;-60
2021/12/22 13:20:28;;;;;;;16.23;6.32;;;5.10;93.70;;;;;;5049881;28;20076;-59
2021/12/22 13:22:59;;;;;;;23.52;8.00;;;5.10;93.80;;;;;;5050471;28;20051;-60
2021/12/22 13:25:46;;;;;;;21.48;7.85;;;5.10;93.90;;;;;;5048854;28;20076;-60
2021/12/22 13:28:14;;;;;;;14.85;8.68;;;5.10;93.40;;;;;;5049731;28;20041;-60
2021/12/22 13:30:45;;;;;;;25.42;8.23;;;5.20;93.90;;;;;;5048173;28;20103;-61
2021/12/22 13:33:19;;;;;;;21.00;8.02;;;5.10;93.80;;;;;;5047530;28;20056;-66